createdAt,value
2019-03-04T00:00:54.838Z,69.71
2019-03-04T00:03:23.667Z,69.25
2019-03-04T00:05:51.908Z,69.23
2019-03-04T00:08:20.272Z,68.94
2019-03-04T00:10:48.870Z,68.97
2019-03-04T00:13:17.081Z,68.93
2019-03-04T00:15:45.417Z,68.43
2019-03-04T00:18:13.946Z,68.35
2019-03-04T00:20:42.643Z,68.12
2019-03-04T00:23:11.509Z,67.46
2019-03-04T00:26:19.747Z,67.33
2019-03-04T00:28:48.457Z,67.33
2019-03-04T00:31:16.704Z,67.53
2019-03-04T00:33:44.949Z,66.99
2019-03-04T00:36:13.172Z,66.94
2019-03-04T00:38:41.425Z,67.21
2019-03-04T00:41:10.009Z,67.28
2019-03-04T00:43:38.282Z,67.51
2019-03-04T00:46:06.584Z,67.53
2019-03-04T00:48:34.731Z,67.73
2019-03-04T00:51:03.025Z,68.00
2019-03-04T00:53:31.614Z,67.75
2019-03-04T00:55:59.902Z,67.67
2019-03-04T00:58:28.532Z,67.06
2019-03-04T01:00:56.726Z,67.06
2019-03-04T01:03:25.238Z,67.09
2019-03-04T01:05:53.869Z,67.49
2019-03-04T01:08:22.637Z,68.17
2019-03-04T01:10:51.306Z,68.52
2019-03-04T01:13:19.699Z,69.80
2019-03-04T01:15:48.292Z,70.28
2019-03-04T01:18:16.573Z,70.89
2019-03-04T01:20:45.115Z,71.46
2019-03-04T01:23:13.743Z,72.15
2019-03-04T01:25:42.333Z,72.57
2019-03-04T01:28:10.339Z,73.06
2019-03-04T01:30:39.008Z,72.50
2019-03-04T01:33:07.586Z,71.47
2019-03-04T01:35:35.537Z,71.23
2019-03-04T01:38:03.461Z,70.29
2019-03-04T01:40:31.727Z,68.45
2019-03-04T01:43:00.321Z,68.53
2019-03-04T01:45:29.004Z,68.76
2019-03-04T01:47:57.628Z,67.76
2019-03-04T01:50:25.881Z,67.07
2019-03-04T01:52:54.146Z,65.45
2019-03-04T01:55:22.277Z,64.91
2019-03-04T01:58:02.832Z,64.63
2019-03-04T02:00:42.683Z,64.65
2019-03-04T02:03:11.377Z,63.31
2019-03-04T02:05:39.938Z,63.91
2019-03-04T02:08:08.153Z,65.73
2019-03-04T02:10:36.809Z,65.62
2019-03-04T02:13:05.082Z,65.25
2019-03-04T02:15:33.257Z,64.52
2019-03-04T02:18:01.957Z,64.39
2019-03-04T02:20:30.228Z,63.61
2019-03-04T02:22:58.502Z,63.18
2019-03-04T02:26:05.131Z,62.33
2019-03-04T02:28:33.047Z,63.11
2019-03-04T02:31:01.454Z,63.75
2019-03-04T02:33:30.130Z,62.75
2019-03-04T02:35:58.513Z,63.37
2019-03-04T02:38:26.484Z,65.02
2019-03-04T02:40:54.402Z,64.96
2019-03-04T02:43:22.313Z,64.92
2019-03-04T02:45:50.224Z,65.29
2019-03-04T02:48:18.778Z,65.17
2019-03-04T02:50:47.378Z,65.76
2019-03-04T02:53:15.174Z,64.97
2019-03-04T02:55:44.046Z,65.52
2019-03-04T02:58:11.914Z,64.81
2019-03-04T03:00:40.545Z,65.96
2019-03-04T03:03:08.107Z,64.70
2019-03-04T03:05:36.362Z,64.04
2019-03-04T03:08:04.882Z,64.73
2019-03-04T03:10:33.477Z,63.74
2019-03-04T03:13:01.808Z,63.18
2019-03-04T03:15:30.391Z,61.93
2019-03-04T03:17:58.268Z,62.79
2019-03-04T03:20:26.907Z,61.45
2019-03-04T03:22:55.660Z,62.01
2019-03-04T03:25:23.940Z,62.71
2019-03-04T03:27:52.537Z,63.31
2019-03-04T03:30:20.933Z,62.71
2019-03-04T03:32:57.134Z,64.25
2019-03-04T03:35:24.650Z,63.45
2019-03-04T03:37:53.150Z,64.27
2019-03-04T03:40:21.123Z,63.80
2019-03-04T03:42:48.878Z,63.81
2019-03-04T03:45:16.833Z,64.38
2019-03-04T03:47:45.428Z,64.79
2019-03-04T03:53:15.179Z,66.76
2019-03-04T03:55:43.334Z,67.95
2019-03-04T03:58:11.538Z,68.09
2019-03-04T04:00:39.382Z,68.72
2019-03-04T04:03:08.088Z,68.87
2019-03-04T04:05:36.162Z,67.66
2019-03-04T04:08:04.673Z,69.15
2019-03-04T04:10:32.915Z,67.49
2019-03-04T04:13:01.515Z,67.79
2019-03-04T04:15:29.810Z,67.21
2019-03-04T04:17:57.679Z,67.85
2019-03-04T04:20:25.859Z,66.22
2019-03-04T04:22:54.028Z,65.94
2019-03-04T04:25:22.307Z,66.08
2019-03-04T04:27:50.910Z,67.90
2019-03-04T04:33:15.979Z,66.03
2019-03-04T04:35:44.351Z,64.94
2019-03-04T04:38:12.998Z,63.40
2019-03-04T04:40:41.502Z,62.23
2019-03-04T04:43:09.458Z,61.10
2019-03-04T04:45:37.737Z,61.05
2019-03-04T04:48:06.097Z,61.75
2019-03-04T04:50:34.085Z,59.87
2019-03-04T04:53:02.264Z,59.88
2019-03-04T04:55:30.147Z,59.21
2019-03-04T04:57:58.419Z,59.71
2019-03-04T05:00:27.112Z,60.86
2019-03-04T05:02:55.810Z,60.32
2019-03-04T05:05:24.399Z,59.54
2019-03-04T05:07:52.938Z,60.47
2019-03-04T05:10:20.768Z,60.00
2019-03-04T05:12:49.039Z,60.86
2019-03-04T05:15:17.425Z,60.37
2019-03-04T05:20:48.068Z,61.91
2019-03-04T05:23:16.315Z,61.58
2019-03-04T05:25:44.235Z,61.89
2019-03-04T05:28:12.502Z,62.55
2019-03-04T05:30:41.014Z,61.38
2019-03-04T05:33:09.279Z,60.99
2019-03-04T05:35:44.622Z,61.10
2019-03-04T05:38:13.096Z,60.81
2019-03-04T05:40:41.328Z,60.52
2019-03-04T05:43:09.275Z,61.18
2019-03-04T05:45:38.144Z,61.05
2019-03-04T05:48:07.736Z,60.91
2019-03-04T05:50:36.455Z,61.17
2019-03-04T05:53:04.738Z,60.39
2019-03-04T05:55:32.932Z,60.45
2019-03-04T05:58:01.436Z,61.16
2019-03-04T06:03:13.554Z,61.04
2019-03-04T06:05:41.902Z,60.76
2019-03-04T06:08:10.598Z,61.23
2019-03-04T06:10:38.524Z,60.73
2019-03-04T06:13:06.797Z,60.46
2019-03-04T06:15:35.409Z,61.32
2019-03-04T06:18:03.750Z,60.51
2019-03-04T06:20:32.009Z,60.00
2019-03-04T06:23:00.530Z,60.31
2019-03-04T06:25:28.876Z,60.54
2019-03-04T06:28:37.477Z,60.73
2019-03-04T06:31:05.753Z,61.01
2019-03-04T06:33:34.205Z,60.84
2019-03-04T06:36:02.892Z,60.39
2019-03-04T06:38:30.482Z,60.47
2019-03-04T06:40:59.208Z,60.91
2019-03-04T06:43:27.544Z,60.68
2019-03-04T06:45:56.199Z,59.70
2019-03-04T06:48:24.404Z,59.99
2019-03-04T06:50:54.052Z,58.88
2019-03-04T06:53:43.844Z,58.62
2019-03-04T06:56:33.439Z,58.37
2019-03-04T06:59:26.267Z,58.81
2019-03-04T07:01:57.935Z,59.83
2019-03-04T07:05:04.581Z,59.28
2019-03-04T07:07:33.277Z,58.51
2019-03-04T07:10:00.788Z,58.48
2019-03-04T07:12:28.993Z,58.21
2019-03-04T07:14:57.592Z,57.83
2019-03-04T07:17:25.948Z,57.63
2019-03-04T07:20:13.493Z,57.19
2019-03-04T07:22:41.793Z,56.85
2019-03-04T07:25:10.069Z,56.79
2019-03-04T07:27:38.743Z,57.51
2019-03-04T07:30:08.684Z,58.49
2019-03-04T07:32:36.178Z,59.33
2019-03-04T07:35:04.587Z,59.17
2019-03-04T07:37:32.900Z,59.21
2019-03-04T07:40:01.190Z,56.87
2019-03-04T07:42:31.199Z,54.73
2019-03-04T07:45:06.139Z,53.87
2019-03-04T07:47:34.464Z,50.33
2019-03-04T07:50:02.735Z,50.97
2019-03-04T07:52:32.230Z,48.64
2019-03-04T07:55:00.997Z,44.84
2019-03-04T07:57:29.373Z,43.42
2019-03-04T07:59:57.689Z,42.67
2019-03-04T08:02:26.279Z,41.97
2019-03-04T08:04:54.888Z,42.54
2019-03-04T08:08:01.478Z,43.12
2019-03-04T08:11:09.811Z,43.52
2019-03-04T08:13:43.952Z,44.36
2019-03-04T08:16:12.004Z,45.16
2019-03-04T08:18:41.173Z,45.62
2019-03-04T08:21:09.085Z,45.99
2019-03-04T08:23:37.368Z,46.68
2019-03-04T08:29:26.313Z,47.18
2019-03-04T08:31:54.910Z,47.67
2019-03-04T08:34:30.767Z,48.31
2019-03-04T08:36:59.365Z,48.93
2019-03-04T08:39:26.846Z,49.45
2019-03-04T08:41:54.785Z,50.54
2019-03-04T08:44:23.079Z,51.04
2019-03-04T08:46:52.379Z,51.52
2019-03-04T08:52:54.099Z,52.49
2019-03-04T08:55:21.613Z,54.70
2019-03-04T08:57:50.284Z,56.72
2019-03-04T09:00:20.333Z,58.92
2019-03-04T09:02:48.280Z,61.77
2019-03-04T09:05:15.859Z,62.57
2019-03-04T09:07:44.019Z,63.89
2019-03-04T09:13:37.999Z,67.94
2019-03-04T09:16:06.475Z,73.70
2019-03-04T09:18:38.530Z,75.86
2019-03-04T09:21:07.347Z,77.14
2019-03-04T09:23:34.948Z,78.94
2019-03-04T09:26:06.388Z,79.86
2019-03-04T09:28:34.748Z,80.60
2019-03-04T09:31:02.981Z,80.48
2019-03-04T09:33:31.660Z,81.20
2019-03-04T09:36:00.042Z,81.86
2019-03-04T09:38:28.619Z,82.54
2019-03-04T09:40:57.407Z,79.88
2019-03-04T09:43:25.762Z,82.05
2019-03-04T09:45:54.059Z,82.99
2019-03-04T09:48:21.956Z,82.02
2019-03-04T09:50:50.603Z,82.07
2019-03-04T09:53:18.504Z,82.59
2019-03-04T09:55:46.353Z,82.18
2019-03-04T09:58:15.161Z,77.40
2019-03-04T10:00:48.573Z,78.66
2019-03-04T10:03:55.305Z,75.68
2019-03-04T10:07:02.045Z,75.17
2019-03-04T10:09:41.856Z,74.72
2019-03-04T10:12:48.550Z,73.31
2019-03-04T10:15:55.196Z,69.75
2019-03-04T10:19:01.524Z,68.29
2019-03-04T10:21:54.966Z,67.90
2019-03-04T10:25:01.377Z,68.00
2019-03-04T10:27:36.428Z,65.42
2019-03-04T10:30:27.864Z,65.20
2019-03-04T10:33:34.263Z,63.42
2019-03-04T10:36:33.633Z,63.25
2019-03-04T10:39:40.336Z,61.09
2019-03-04T10:42:47.019Z,63.44
2019-03-04T10:45:53.311Z,62.37
2019-03-04T10:48:21.669Z,61.34
2019-03-04T10:50:50.003Z,59.71
2019-03-04T10:53:18.608Z,58.87
2019-03-04T10:55:46.981Z,59.45
2019-03-04T10:58:15.318Z,58.76
2019-03-04T11:00:43.236Z,59.15
2019-03-04T11:03:11.531Z,57.30
2019-03-04T11:05:39.400Z,56.73
2019-03-04T11:08:08.189Z,56.83
2019-03-04T11:10:36.785Z,57.70
2019-03-04T11:13:05.643Z,57.25
2019-03-04T11:15:33.934Z,56.47
2019-03-04T11:18:02.366Z,57.58
2019-03-04T11:20:31.066Z,57.28
2019-03-04T11:22:59.840Z,56.97
2019-03-04T11:25:28.633Z,57.23
2019-03-04T11:27:56.919Z,56.48
2019-03-04T11:30:44.731Z,57.02
2019-03-04T11:33:13.295Z,57.80
2019-03-04T11:35:42.526Z,56.69
2019-03-04T11:38:48.889Z,57.00
2019-03-04T11:41:36.616Z,57.60
2019-03-04T11:44:04.594Z,57.05
2019-03-04T11:46:32.955Z,58.22
2019-03-04T11:49:01.957Z,58.73
2019-03-04T11:51:30.034Z,59.25
2019-03-04T11:53:58.350Z,59.24
2019-03-04T11:56:26.455Z,59.61
2019-03-04T11:58:54.792Z,60.77
2019-03-04T12:04:27.254Z,61.13
2019-03-04T12:06:55.446Z,61.40
2019-03-04T12:09:24.099Z,60.71
2019-03-04T12:11:52.838Z,59.72
2019-03-04T12:14:21.326Z,60.44
2019-03-04T12:16:49.550Z,59.86
2019-03-04T12:19:17.600Z,59.87
2019-03-04T12:21:46.019Z,60.34
2019-03-04T12:24:14.563Z,58.81
2019-03-04T12:26:42.575Z,59.23
2019-03-04T12:29:11.755Z,59.94
2019-03-04T12:31:59.347Z,57.92
2019-03-04T12:34:28.142Z,57.79
2019-03-04T12:36:58.259Z,56.66
2019-03-04T12:39:26.799Z,56.94
2019-03-04T12:41:55.607Z,57.01
2019-03-04T12:44:23.819Z,56.79
2019-03-04T12:46:52.210Z,57.07
2019-03-04T12:49:20.199Z,56.80
2019-03-04T12:51:48.741Z,55.38
2019-03-04T12:54:17.979Z,55.94
2019-03-04T12:56:46.671Z,55.65
2019-03-04T12:59:15.249Z,55.41
2019-03-04T13:01:45.000Z,54.49
2019-03-04T13:04:13.254Z,55.03
2019-03-04T13:06:42.041Z,55.24
2019-03-04T13:09:14.471Z,54.13
2019-03-04T13:11:46.305Z,53.64
2019-03-04T13:14:14.669Z,54.29
2019-03-04T13:16:42.644Z,53.33
2019-03-04T13:19:10.920Z,52.82
2019-03-04T13:21:38.545Z,52.05
2019-03-04T13:24:07.119Z,52.65
2019-03-04T13:26:35.951Z,52.38
2019-03-04T13:29:05.019Z,50.49
2019-03-04T13:34:26.633Z,51.74
2019-03-04T13:36:54.894Z,51.33
2019-03-04T13:39:23.519Z,52.56
2019-03-04T13:41:51.879Z,52.50
2019-03-04T13:44:20.462Z,52.47
2019-03-04T13:46:49.258Z,52.30
2019-03-04T13:49:18.100Z,50.35
2019-03-04T13:51:46.415Z,47.40
2019-03-04T13:54:14.710Z,45.14
2019-03-04T13:56:43.436Z,45.46
2019-03-04T13:59:12.096Z,43.74
2019-03-04T14:01:40.943Z,41.58
2019-03-04T14:04:09.669Z,42.35
2019-03-04T14:06:38.061Z,43.35
2019-03-04T14:09:06.716Z,43.44
2019-03-04T14:12:15.409Z,42.79
2019-03-04T14:14:43.837Z,43.01
2019-03-04T14:17:12.462Z,42.60
2019-03-04T14:19:40.472Z,43.22
2019-03-04T14:22:09.109Z,44.30
2019-03-04T14:24:37.860Z,43.43
2019-03-04T14:27:06.629Z,43.60
2019-03-04T14:29:38.686Z,40.92
2019-03-04T14:32:07.368Z,41.05
2019-03-04T14:34:36.165Z,40.07
2019-03-04T14:37:05.046Z,40.51
2019-03-04T14:39:34.732Z,39.28
2019-03-04T14:42:03.261Z,37.51
2019-03-04T14:44:31.921Z,37.05
2019-03-04T14:47:00.758Z,36.96
2019-03-04T14:49:29.076Z,39.65
2019-03-04T14:51:57.435Z,42.26
2019-03-04T14:54:26.236Z,43.22
2019-03-04T14:56:54.156Z,43.40
2019-03-04T14:59:22.965Z,40.79
2019-03-04T15:01:51.837Z,39.34
2019-03-04T15:04:20.221Z,37.69
2019-03-04T15:06:48.527Z,38.13
2019-03-04T15:09:16.230Z,37.28
2019-03-04T15:11:44.974Z,35.61
2019-03-04T15:14:13.670Z,37.24
2019-03-04T15:16:41.951Z,39.65
2019-03-04T15:19:10.836Z,40.36
2019-03-04T15:24:40.795Z,39.18
2019-03-04T15:27:09.276Z,39.88
2019-03-04T15:29:37.709Z,39.27
2019-03-04T15:32:06.142Z,38.14
2019-03-04T15:34:33.759Z,38.42
2019-03-04T15:37:02.389Z,36.48
2019-03-04T15:39:31.092Z,40.11
2019-03-04T15:41:59.126Z,43.24
2019-03-04T15:44:27.891Z,44.52
2019-03-04T15:46:56.329Z,42.20
2019-03-04T15:49:24.265Z,42.53
2019-03-04T15:51:52.593Z,44.22
2019-03-04T15:54:20.567Z,44.77
2019-03-04T15:56:49.412Z,45.22
2019-03-04T15:59:17.719Z,45.53
2019-03-04T16:02:17.096Z,46.43
2019-03-04T16:04:45.862Z,46.52
2019-03-04T16:07:14.433Z,47.06
2019-03-04T16:18:27.475Z,48.92
2019-03-04T16:20:56.084Z,49.59
2019-03-04T16:23:23.961Z,49.72
2019-03-04T16:25:52.527Z,49.92
2019-03-04T16:28:22.754Z,50.01
2019-03-04T16:30:51.098Z,50.66
2019-03-04T16:33:19.695Z,50.58
2019-03-04T16:35:48.300Z,50.50
2019-03-04T16:38:16.465Z,51.95
2019-03-04T16:40:44.763Z,61.57
2019-03-04T16:43:13.159Z,75.48
2019-03-04T16:48:42.464Z,85.74
2019-03-04T16:51:22.020Z,87.92
2019-03-04T16:53:50.462Z,88.58
2019-03-04T16:56:18.383Z,89.05
2019-03-04T16:58:46.342Z,89.35
2019-03-04T17:01:45.755Z,89.79
2019-03-04T17:04:14.107Z,90.05
2019-03-04T17:07:22.839Z,90.14
2019-03-04T17:10:21.912Z,89.96
2019-03-04T17:12:50.603Z,90.21
2019-03-04T17:15:59.691Z,90.29
2019-03-04T17:18:28.072Z,90.33
2019-03-04T17:20:56.735Z,90.27
2019-03-04T17:23:25.457Z,90.52
2019-03-04T17:25:54.156Z,90.69
2019-03-04T17:31:23.756Z,89.27
2019-03-04T17:33:52.149Z,89.20
2019-03-04T17:36:20.770Z,88.78
2019-03-04T17:38:49.038Z,88.35
2019-03-04T17:41:28.823Z,89.10
2019-03-04T17:43:57.162Z,89.25
2019-03-04T17:47:05.831Z,88.99
2019-03-04T17:50:14.530Z,88.65
2019-03-04T17:52:43.266Z,89.17
2019-03-04T17:55:52.377Z,87.81
2019-03-04T17:58:20.659Z,87.42
2019-03-04T18:01:29.287Z,86.65
2019-03-04T18:03:57.871Z,86.58
2019-03-04T18:06:26.521Z,86.98
2019-03-04T18:08:54.496Z,87.00
2019-03-04T18:14:25.486Z,86.59
2019-03-04T18:16:53.745Z,86.71
2019-03-04T18:19:22.145Z,86.33
2019-03-04T18:21:50.406Z,86.37
2019-03-04T18:24:18.875Z,85.69
2019-03-04T18:27:25.538Z,86.11
2019-03-04T18:30:31.950Z,86.49
2019-03-04T18:33:38.614Z,86.65
2019-03-04T18:36:45.310Z,86.24
2019-03-04T18:39:51.964Z,85.77
2019-03-04T18:42:58.619Z,85.35
2019-03-04T18:46:04.927Z,85.36
2019-03-04T18:49:11.491Z,85.15
2019-03-04T18:51:59.390Z,85.79
2019-03-04T18:54:27.806Z,86.31
2019-03-04T19:00:16.088Z,87.92
2019-03-04T19:02:43.913Z,87.66
2019-03-04T19:05:31.226Z,88.45
2019-03-04T19:08:00.012Z,88.02
2019-03-04T19:13:49.026Z,88.89
2019-03-04T19:16:57.680Z,88.56
2019-03-04T19:19:37.110Z,89.24
2019-03-04T19:24:56.516Z,90.35
2019-03-04T19:30:56.926Z,90.32
2019-03-04T19:36:16.092Z,90.47
2019-03-04T19:41:35.168Z,90.97
2019-03-04T19:50:17.792Z,91.41
2019-03-04T19:52:46.508Z,91.24
2019-03-04T19:58:15.418Z,92.68
2019-03-04T20:01:23.796Z,92.06
2019-03-04T20:07:23.947Z,92.44
2019-03-04T20:09:52.177Z,92.26
2019-03-04T20:15:21.441Z,91.90
2019-03-04T20:17:49.999Z,92.14
2019-03-04T20:20:58.583Z,91.42
2019-03-04T20:23:26.448Z,91.55
2019-03-04T20:25:55.755Z,90.61
2019-03-04T20:28:42.731Z,89.90
2019-03-04T20:31:22.871Z,89.63
2019-03-04T20:33:51.767Z,88.91
2019-03-04T20:36:52.084Z,88.82
2019-03-04T20:42:19.842Z,87.80
2019-03-04T20:45:28.415Z,87.26
2019-03-04T20:48:10.011Z,87.27
2019-03-04T20:51:18.874Z,87.07
2019-03-04T20:56:49.246Z,87.21
2019-03-04T20:59:35.897Z,87.01
2019-03-04T21:05:37.726Z,86.39
2019-03-04T21:14:08.861Z,86.67
2019-03-04T21:17:17.649Z,86.32
2019-03-04T21:20:05.647Z,86.42
2019-03-04T21:26:09.442Z,86.20
2019-03-04T21:32:23.962Z,85.86
2019-03-04T21:35:21.014Z,85.87
2019-03-04T21:37:51.794Z,85.28
2019-03-04T21:41:02.516Z,85.03
2019-03-04T21:47:14.606Z,84.58
2019-03-04T21:49:45.857Z,84.54
2019-03-04T21:52:34.753Z,83.49
2019-03-04T21:58:54.854Z,81.99
2019-03-04T22:04:38.019Z,82.03
2019-03-04T22:07:06.375Z,79.43
2019-03-04T22:12:57.227Z,79.80
2019-03-04T22:15:31.885Z,79.14
2019-03-04T22:18:00.195Z,78.55
2019-03-04T22:20:28.153Z,77.05
2019-03-04T22:22:56.045Z,78.14
2019-03-04T22:25:24.320Z,78.34
2019-03-04T22:27:52.594Z,77.67
2019-03-04T22:30:20.814Z,77.73
2019-03-04T22:33:00.785Z,77.71
2019-03-04T22:35:29.348Z,78.03
2019-03-04T22:37:57.608Z,78.26
2019-03-04T22:40:25.895Z,78.79
2019-03-04T22:42:54.453Z,77.82
2019-03-04T22:48:55.007Z,78.10
2019-03-04T22:51:54.186Z,78.06
2019-03-04T22:54:22.796Z,78.91
2019-03-04T22:57:31.392Z,79.33
2019-03-04T22:59:59.316Z,79.57
2019-03-04T23:02:26.847Z,77.93
2019-03-04T23:05:00.933Z,78.35
2019-03-04T23:07:50.101Z,78.37
2019-03-04T23:10:47.641Z,78.64
2019-03-04T23:13:37.374Z,78.24
2019-03-04T23:16:08.174Z,78.13
2019-03-04T23:18:36.782Z,78.54
2019-03-04T23:21:06.507Z,78.42
2019-03-04T23:23:34.612Z,78.37
2019-03-04T23:26:02.911Z,77.38
2019-03-04T23:28:31.403Z,77.86
2019-03-04T23:31:00.090Z,77.81
2019-03-04T23:33:36.568Z,77.40
2019-03-04T23:36:05.179Z,77.37
2019-03-04T23:38:33.156Z,77.58
2019-03-04T23:41:01.501Z,77.78
2019-03-04T23:43:29.773Z,77.20
2019-03-04T23:45:58.124Z,77.41
2019-03-04T23:48:26.752Z,77.19
2019-03-04T23:50:54.727Z,75.48
2019-03-04T23:53:23.126Z,76.06
2019-03-04T23:55:51.368Z,75.34
2019-03-04T23:58:19.301Z,75.60
